createdAt,value
2018-02-08T00:01:11.428Z,42.93
2018-02-08T00:03:40.283Z,42.93
2018-02-08T00:06:09.136Z,44.27
2018-02-08T00:08:38.766Z,42.53
2018-02-08T00:11:08.275Z,41.40
2018-02-08T00:13:37.132Z,40.80
2018-02-08T00:16:06.735Z,41.77
2018-02-08T00:18:36.379Z,42.80
2018-02-08T00:21:05.255Z,40.80
2018-02-08T00:23:34.108Z,45.70
2018-02-08T00:26:02.962Z,38.00
2018-02-08T00:28:31.847Z,43.10
2018-02-08T00:31:00.702Z,36.30
2018-02-08T00:33:30.334Z,45.93
2018-02-08T00:35:59.203Z,39.83
2018-02-08T00:38:28.824Z,46.00
2018-02-08T00:40:57.684Z,45.73
2018-02-08T00:43:27.311Z,38.13
2018-02-08T00:45:56.947Z,43.47
2018-02-08T00:48:25.787Z,42.57
2018-02-08T00:50:55.406Z,49.60
2018-02-08T00:53:24.509Z,45.47
2018-02-08T00:55:53.314Z,44.80
2018-02-08T00:58:22.207Z,51.00
2018-02-08T01:00:51.065Z,53.57
2018-02-08T01:03:20.668Z,53.27
2018-02-08T01:05:50.303Z,43.97
2018-02-08T01:08:19.502Z,46.27
2018-02-08T01:10:48.358Z,49.73
2018-02-08T01:13:17.998Z,54.97
2018-02-08T01:15:46.854Z,48.00
2018-02-08T01:18:16.494Z,48.80
2018-02-08T01:20:45.340Z,52.77
2018-02-08T01:23:14.182Z,42.63
2018-02-08T01:25:43.034Z,51.63
2018-02-08T01:28:12.633Z,57.13
2018-02-08T01:30:42.281Z,43.67
2018-02-08T01:33:11.119Z,50.90
2018-02-08T01:35:39.997Z,48.60
2018-02-08T01:38:09.601Z,45.67
2018-02-08T01:40:39.218Z,46.43
2018-02-08T01:43:08.821Z,43.63
2018-02-08T01:45:38.450Z,44.43
2018-02-08T01:48:07.296Z,46.10
2018-02-08T01:50:36.134Z,46.37
2018-02-08T01:53:04.985Z,50.77
2018-02-08T01:55:34.625Z,49.63
2018-02-08T01:58:03.468Z,50.53
2018-02-08T02:00:32.337Z,48.90
2018-02-08T02:03:01.194Z,53.47
2018-02-08T02:05:30.037Z,46.67
2018-02-08T02:07:58.883Z,56.47
2018-02-08T02:10:27.718Z,52.03
2018-02-08T02:12:56.565Z,53.20
2018-02-08T02:15:25.392Z,47.67
2018-02-08T02:17:55.370Z,44.30
2018-02-08T02:20:24.221Z,55.57
2018-02-08T02:22:53.855Z,51.83
2018-02-08T02:25:22.695Z,61.67
2018-02-08T02:27:51.554Z,57.73
2018-02-08T02:30:20.386Z,56.43
2018-02-08T02:32:50.017Z,51.43
2018-02-08T02:35:18.865Z,55.47
2018-02-08T02:37:47.702Z,54.83
2018-02-08T02:40:16.545Z,53.93
2018-02-08T02:42:45.390Z,52.17
2018-02-08T02:45:15.036Z,51.73
2018-02-08T02:47:43.870Z,50.17
2018-02-08T02:50:12.733Z,61.77
2018-02-08T02:52:41.579Z,54.37
2018-02-08T02:55:11.207Z,55.03
2018-02-08T02:57:40.045Z,49.53
2018-02-08T03:00:08.911Z,57.00
2018-02-08T03:02:37.745Z,58.83
2018-02-08T03:05:07.878Z,58.40
2018-02-08T03:07:36.902Z,58.03
2018-02-08T03:10:06.509Z,54.37
2018-02-08T03:12:35.338Z,57.87
2018-02-08T03:15:04.194Z,48.40
2018-02-08T03:17:33.061Z,52.37
2018-02-08T03:20:01.919Z,53.90
2018-02-08T03:22:31.537Z,48.00
2018-02-08T03:25:00.401Z,51.70
2018-02-08T03:27:29.767Z,58.10
2018-02-08T03:29:58.630Z,53.60
2018-02-08T03:32:28.248Z,55.77
2018-02-08T03:34:57.101Z,48.73
2018-02-08T03:37:26.001Z,52.83
2018-02-08T03:39:54.797Z,49.40
2018-02-08T03:42:23.655Z,53.73
2018-02-08T03:44:52.498Z,49.07
2018-02-08T03:47:22.137Z,61.47
2018-02-08T03:49:50.994Z,58.13
2018-02-08T03:52:20.609Z,51.53
2018-02-08T03:54:49.496Z,57.20
2018-02-08T03:57:19.125Z,55.37
2018-02-08T03:59:48.737Z,50.73
2018-02-08T04:02:18.445Z,59.60
2018-02-08T04:04:47.289Z,56.30
2018-02-08T04:07:16.127Z,58.00
2018-02-08T04:09:44.986Z,55.47
2018-02-08T04:12:14.594Z,54.53
2018-02-08T04:14:44.229Z,53.43
2018-02-08T04:17:13.063Z,46.37
2018-02-08T04:19:42.110Z,52.10
2018-02-08T04:22:10.963Z,51.67
2018-02-08T04:24:40.630Z,52.90
2018-02-08T04:27:09.462Z,58.90
2018-02-08T04:29:39.085Z,53.90
2018-02-08T04:32:08.683Z,53.73
2018-02-08T04:34:37.673Z,47.20
2018-02-08T04:37:06.516Z,47.97
2018-02-08T04:39:47.259Z,52.07
2018-02-08T04:42:28.709Z,57.83
2018-02-08T04:45:09.231Z,52.97
2018-02-08T04:50:38.644Z,52.57
2018-02-08T04:53:07.486Z,54.93
2018-02-08T04:55:36.340Z,62.63
2018-02-08T04:58:05.205Z,55.63
2018-02-08T05:00:34.055Z,55.33
2018-02-08T05:03:02.893Z,47.43
2018-02-08T05:05:31.735Z,54.43
2018-02-08T05:08:00.585Z,54.23
2018-02-08T05:10:29.442Z,52.30
2018-02-08T05:12:59.083Z,54.43
2018-02-08T05:15:27.930Z,58.40
2018-02-08T05:17:57.541Z,56.03
2018-02-08T05:20:27.173Z,58.33
2018-02-08T05:22:56.042Z,57.40
2018-02-08T05:25:25.668Z,56.93
2018-02-08T05:27:54.525Z,55.90
2018-02-08T05:30:24.123Z,57.30
2018-02-08T05:32:52.957Z,56.00
2018-02-08T05:35:21.822Z,56.37
2018-02-08T05:37:51.431Z,55.50
2018-02-08T05:40:21.050Z,67.30
2018-02-08T05:42:50.681Z,58.87
2018-02-08T05:45:19.527Z,55.47
2018-02-08T05:47:48.381Z,55.37
2018-02-08T05:50:17.246Z,59.30
2018-02-08T05:52:46.081Z,60.63
2018-02-08T05:55:14.929Z,51.10
2018-02-08T05:57:43.813Z,61.42
2018-02-08T06:00:12.684Z,55.30
2018-02-08T06:02:42.290Z,51.23
2018-02-08T06:05:11.929Z,56.00
2018-02-08T06:07:41.534Z,63.03
2018-02-08T06:10:10.375Z,60.73
2018-02-08T06:12:39.215Z,55.37
2018-02-08T06:15:08.050Z,57.65
2018-02-08T06:17:36.933Z,58.87
2018-02-08T06:20:05.772Z,63.40
2018-02-08T06:22:34.642Z,63.57
2018-02-08T06:25:04.253Z,58.60
2018-02-08T06:27:33.128Z,60.83
2018-02-08T06:30:01.959Z,56.07
2018-02-08T06:32:30.822Z,64.03
2018-02-08T06:34:59.682Z,67.90
2018-02-08T06:37:28.533Z,58.67
2018-02-08T06:39:57.389Z,59.80
2018-02-08T06:42:27.759Z,57.33
2018-02-08T06:44:56.604Z,59.23
2018-02-08T06:47:25.483Z,69.50
2018-02-08T06:49:54.332Z,64.33
2018-02-08T06:52:23.178Z,63.47
2018-02-08T06:54:52.014Z,59.53
2018-02-08T06:57:20.869Z,61.00
2018-02-08T06:59:50.480Z,61.00
2018-02-08T07:02:20.105Z,65.27
2018-02-08T07:04:48.962Z,59.40
2018-02-08T07:07:17.790Z,56.63
2018-02-08T07:09:46.666Z,56.50
2018-02-08T07:12:15.522Z,60.93
2018-02-08T07:14:44.375Z,57.63
2018-02-08T07:17:13.221Z,67.13
2018-02-08T07:19:42.969Z,69.60
2018-02-08T07:22:11.824Z,65.77
2018-02-08T07:24:41.452Z,60.17
2018-02-08T07:27:10.625Z,70.63
2018-02-08T07:29:40.234Z,60.10
2018-02-08T07:32:09.985Z,59.90
2018-02-08T07:34:38.817Z,65.93
2018-02-08T07:37:08.447Z,59.20
2018-02-08T07:39:38.178Z,64.70
2018-02-08T07:42:07.033Z,60.67
2018-02-08T07:44:35.904Z,56.33
2018-02-08T07:47:04.771Z,64.53
2018-02-08T07:49:34.163Z,66.90
2018-02-08T07:52:03.770Z,66.57
2018-02-08T07:54:32.636Z,70.47
2018-02-08T07:57:01.486Z,64.97
2018-02-08T07:59:30.349Z,66.60
2018-02-08T08:01:59.964Z,69.90
2018-02-08T08:04:28.829Z,67.40
2018-02-08T08:06:57.679Z,73.33
2018-02-08T08:09:26.529Z,72.30
2018-02-08T08:11:56.126Z,57.83
2018-02-08T08:14:25.758Z,66.90
2018-02-08T08:16:54.606Z,62.43
2018-02-08T08:19:23.485Z,59.23
2018-02-08T08:21:52.330Z,60.50
2018-02-08T08:24:22.000Z,60.87
2018-02-08T08:26:51.668Z,69.33
2018-02-08T08:29:20.508Z,62.13
2018-02-08T08:31:50.124Z,62.30
2018-02-08T08:34:19.746Z,68.80
2018-02-08T08:36:48.612Z,62.13
2018-02-08T08:39:17.465Z,73.33
2018-02-08T08:41:47.078Z,69.47
2018-02-08T08:44:16.689Z,69.00
2018-02-08T08:46:46.065Z,69.70
2018-02-08T08:49:14.902Z,65.20
2018-02-08T08:51:43.995Z,69.63
2018-02-08T08:54:12.833Z,62.83
2018-02-08T08:56:41.680Z,55.43
2018-02-08T08:59:10.519Z,58.80
2018-02-08T09:01:39.402Z,61.17
2018-02-08T09:04:08.242Z,57.43
2018-02-08T09:06:37.416Z,59.80
2018-02-08T09:09:06.230Z,56.77
2018-02-08T09:11:35.050Z,57.30
2018-02-08T09:14:03.884Z,58.47
2018-02-08T09:16:33.485Z,53.13
2018-02-08T09:19:03.117Z,59.47
2018-02-08T09:21:31.978Z,54.17
2018-02-08T09:24:01.219Z,73.97
2018-02-08T09:26:31.030Z,61.00
2018-02-08T09:28:59.861Z,55.03
2018-02-08T09:31:28.714Z,55.03
2018-02-08T09:33:57.570Z,48.77
2018-02-08T09:36:27.197Z,51.90
2018-02-08T09:38:56.141Z,56.50
2018-02-08T09:41:25.001Z,53.80
2018-02-08T09:43:54.601Z,60.27
2018-02-08T09:46:24.283Z,57.40
2018-02-08T09:48:53.117Z,49.77
2018-02-08T09:51:22.012Z,58.33
2018-02-08T09:53:50.854Z,57.37
2018-02-08T09:56:20.615Z,51.70
2018-02-08T09:58:49.466Z,53.90
2018-02-08T10:01:19.344Z,50.60
2018-02-08T10:03:49.439Z,53.53
2018-02-08T10:06:18.269Z,48.83
2018-02-08T10:08:47.128Z,49.43
2018-02-08T10:11:15.961Z,46.37
2018-02-08T10:13:44.809Z,45.43
2018-02-08T10:16:13.666Z,57.87
2018-02-08T10:18:43.275Z,52.50
2018-02-08T10:21:12.130Z,53.17
2018-02-08T10:23:40.997Z,53.17
2018-02-08T10:26:09.832Z,54.03
2018-02-08T10:28:39.636Z,42.40
2018-02-08T10:31:08.436Z,43.80
2018-02-08T10:33:38.050Z,45.60
2018-02-08T10:36:06.912Z,42.83
2018-02-08T10:38:35.914Z,44.07
2018-02-08T10:41:04.753Z,40.80
2018-02-08T10:43:33.611Z,45.53
2018-02-08T10:46:02.449Z,48.83
2018-02-08T10:48:31.317Z,47.97
2018-02-08T10:51:00.922Z,44.33
2018-02-08T10:53:30.546Z,45.73
2018-02-08T10:55:59.390Z,57.63
2018-02-08T10:58:28.240Z,46.50
2018-02-08T11:00:57.095Z,48.43
2018-02-08T11:03:25.975Z,46.43
2018-02-08T11:05:54.888Z,42.13
2018-02-08T11:08:24.502Z,43.70
2018-02-08T11:10:53.369Z,44.83
2018-02-08T11:13:22.970Z,43.63
2018-02-08T11:15:52.606Z,44.53
2018-02-08T11:18:21.762Z,42.53
2018-02-08T11:20:50.663Z,42.27
2018-02-08T11:23:20.278Z,43.57
2018-02-08T11:25:49.909Z,41.70
2018-02-08T11:28:18.754Z,38.43
2018-02-08T11:30:47.623Z,42.33
2018-02-08T11:33:16.497Z,38.03
2018-02-08T11:35:45.335Z,39.63
2018-02-08T11:38:14.958Z,40.47
2018-02-08T11:40:44.305Z,40.60
2018-02-08T11:43:13.173Z,43.50
2018-02-08T11:45:42.087Z,47.80
2018-02-08T11:48:10.942Z,41.20
2018-02-08T11:50:39.803Z,43.30
2018-02-08T11:53:09.397Z,47.57
2018-02-08T11:55:39.026Z,47.07
2018-02-08T11:58:07.894Z,41.77
2018-02-08T12:00:37.523Z,47.07
2018-02-08T12:03:06.898Z,41.90
2018-02-08T12:05:36.514Z,42.57
2018-02-08T12:08:06.155Z,49.30
2018-02-08T12:10:35.019Z,40.70
2018-02-08T12:13:04.635Z,45.17
2018-02-08T12:15:33.502Z,52.30
2018-02-08T12:18:03.113Z,45.97
2018-02-08T12:20:31.982Z,41.10
2018-02-08T12:23:00.835Z,45.33
2018-02-08T12:25:29.720Z,43.73
2018-02-08T12:27:58.589Z,46.33
2018-02-08T12:30:28.207Z,46.00
2018-02-08T12:32:57.100Z,45.57
2018-02-08T12:35:25.953Z,47.10
2018-02-08T12:37:55.586Z,46.17
2018-02-08T12:40:24.431Z,45.47
2018-02-08T12:42:53.283Z,45.43
2018-02-08T12:45:22.134Z,47.53
2018-02-08T12:47:50.941Z,47.17
2018-02-08T13:23:20.517Z,46.30
2018-02-08T13:25:50.128Z,47.33
2018-02-08T13:28:19.758Z,47.00
2018-02-08T13:30:48.603Z,48.97
2018-02-08T13:33:18.634Z,43.80
2018-02-08T13:35:48.252Z,43.73
2018-02-08T13:38:17.097Z,41.73
2018-02-08T13:40:48.502Z,46.00
2018-02-08T13:43:17.342Z,46.43
2018-02-08T13:45:46.207Z,40.20
2018-02-08T13:48:31.638Z,42.70
2018-02-08T13:51:06.005Z,42.60
2018-02-08T13:57:01.910Z,43.63
2018-02-08T13:59:36.290Z,44.33
2018-02-08T14:02:06.627Z,46.10
2018-02-08T14:04:35.880Z,42.00
2018-02-08T14:07:05.803Z,43.13
2018-02-08T14:09:35.413Z,42.80
2018-02-08T14:12:05.018Z,40.23
2018-02-08T14:14:34.629Z,37.17
2018-02-08T14:17:04.269Z,38.77
2018-02-08T14:19:33.101Z,37.50
2018-02-08T14:22:01.963Z,46.90
2018-02-08T14:24:30.818Z,39.20
2018-02-08T14:26:59.649Z,38.37
2018-02-08T14:29:28.513Z,46.10
2018-02-08T14:31:57.386Z,45.37
2018-02-08T14:34:27.007Z,42.50
2018-02-08T14:36:55.873Z,43.70
2018-02-08T14:39:25.498Z,37.70
2018-02-08T14:41:54.341Z,39.00
2018-02-08T14:44:23.190Z,42.20
2018-02-08T14:46:52.026Z,44.87
2018-02-08T14:49:21.661Z,37.13
2018-02-08T14:51:50.850Z,39.43
2018-02-08T14:54:20.477Z,42.40
2018-02-08T14:56:49.305Z,35.60
2018-02-08T14:59:18.170Z,32.77
2018-02-08T15:01:47.005Z,40.93
2018-02-08T15:04:16.674Z,43.73
2018-02-08T15:06:46.229Z,39.63
2018-02-08T15:09:15.909Z,36.80
2018-02-08T15:11:44.753Z,36.97
2018-02-08T15:14:13.598Z,39.10
2018-02-08T15:16:43.264Z,37.17
2018-02-08T15:19:12.137Z,38.80
2018-02-08T15:21:41.011Z,33.43
2018-02-08T15:24:10.599Z,35.50
2018-02-08T15:26:40.230Z,35.13
2018-02-08T15:29:09.116Z,32.30
2018-02-08T15:31:37.950Z,34.40
2018-02-08T15:34:06.806Z,36.00
2018-02-08T15:36:35.670Z,41.57
2018-02-08T15:39:05.270Z,30.90
2018-02-08T15:41:34.909Z,43.60
2018-02-08T15:44:05.481Z,35.20
2018-02-08T15:46:35.833Z,36.93
2018-02-08T15:49:04.714Z,35.83
2018-02-08T15:51:33.561Z,35.40
2018-02-08T16:40:37.868Z,45.80
2018-02-08T16:43:06.842Z,47.37
2018-02-08T16:45:36.484Z,46.27
2018-02-08T16:48:05.339Z,39.97
2018-02-08T16:50:34.946Z,49.60
2018-02-08T16:53:04.616Z,50.70
2018-02-08T16:55:33.473Z,51.57
2018-02-08T16:58:03.092Z,56.00
2018-02-08T17:00:31.939Z,56.10
2018-02-08T17:03:01.542Z,48.40
2018-02-08T17:05:30.400Z,50.60
2018-02-08T17:07:59.232Z,53.67
2018-02-08T17:10:28.876Z,57.60
2018-02-08T17:12:57.733Z,57.80
2018-02-08T17:15:27.333Z,57.07
2018-02-08T17:17:56.948Z,53.67
2018-02-08T17:20:26.561Z,50.23
2018-02-08T17:22:56.194Z,61.40
2018-02-08T17:25:25.805Z,58.90
2018-02-08T17:27:54.670Z,64.07
2018-02-08T17:30:23.548Z,60.03
2018-02-08T17:32:53.184Z,67.90
2018-02-08T17:35:22.060Z,57.07
2018-02-08T17:37:50.971Z,64.03
2018-02-08T17:40:21.604Z,63.47
2018-02-08T17:42:50.440Z,62.00
2018-02-08T17:45:19.650Z,71.60
2018-02-08T17:47:49.216Z,73.53
2018-02-08T17:50:18.068Z,76.13
2018-02-08T17:52:46.921Z,97.40
2018-02-08T17:55:16.804Z,82.20
2018-02-08T17:57:45.669Z,73.60
2018-02-08T18:00:15.418Z,87.90
2018-02-08T18:02:44.261Z,86.03
2018-02-08T18:05:13.887Z,87.80
2018-02-08T18:07:45.948Z,80.27
2018-02-08T18:10:20.163Z,76.10
2018-02-08T18:12:54.667Z,78.57
2018-02-08T18:18:07.636Z,71.07
2018-02-08T18:33:37.874Z,72.97
2018-02-08T18:39:04.766Z,64.20
2018-02-08T19:28:41.245Z,76.37
2018-02-08T19:31:11.347Z,69.17
2018-02-08T19:34:01.814Z,76.43
2018-02-08T19:52:11.707Z,68.90
2018-02-08T19:54:40.605Z,67.80
2018-02-08T19:57:10.808Z,73.17
2018-02-08T19:59:42.510Z,70.90
2018-02-08T20:02:11.605Z,72.17
2018-02-08T20:04:45.239Z,67.23
2018-02-08T20:07:15.793Z,71.23
2018-02-08T20:09:45.297Z,76.20
2018-02-08T20:12:14.148Z,71.20
2018-02-08T20:14:44.391Z,74.87
2018-02-08T20:17:13.257Z,70.83
2018-02-08T20:19:42.160Z,71.83
2018-02-08T20:22:13.073Z,60.37
2018-02-08T20:24:42.944Z,67.03
2018-02-08T20:27:11.949Z,70.20
2018-02-08T20:29:41.249Z,64.73
2018-02-08T20:32:10.476Z,64.43
2018-02-08T20:34:40.092Z,68.13
2018-02-08T20:37:15.065Z,76.37
2018-02-08T20:39:44.788Z,64.63
2018-02-08T20:45:20.280Z,69.33
2018-02-08T20:47:49.892Z,66.83
2018-02-08T20:50:20.204Z,69.70
2018-02-08T20:52:49.025Z,68.23
2018-02-08T20:55:17.882Z,64.67
2018-02-08T20:57:47.521Z,65.50
2018-02-08T21:00:16.478Z,68.23
2018-02-08T21:02:46.124Z,66.27
2018-02-08T21:05:14.969Z,72.50
2018-02-08T21:17:28.850Z,78.37
2018-02-08T21:19:57.845Z,72.80
2018-02-08T21:22:26.714Z,73.63
2018-02-08T21:24:55.903Z,81.57
2018-02-08T21:27:24.765Z,78.33
2018-02-08T21:29:53.610Z,80.77
2018-02-08T21:32:22.504Z,78.23
2018-02-08T21:34:51.370Z,74.90
2018-02-08T21:37:20.978Z,82.93
2018-02-08T21:39:49.866Z,69.20
2018-02-08T21:42:19.529Z,73.23
2018-02-08T21:44:48.398Z,75.67
2018-02-08T21:47:17.275Z,75.33
2018-02-08T21:49:46.908Z,72.47
2018-02-08T21:52:15.765Z,69.43
2018-02-08T21:54:44.626Z,74.90
2018-02-08T21:57:13.823Z,72.53
2018-02-08T21:59:43.040Z,65.70
2018-02-08T22:02:11.917Z,69.93
2018-02-08T22:04:40.757Z,73.80
2018-02-08T22:07:09.607Z,74.33
2018-02-08T22:09:39.235Z,71.07
2018-02-08T22:12:08.075Z,72.63
2018-02-08T22:14:36.989Z,73.27
2018-02-08T22:17:05.794Z,76.37
2018-02-08T22:19:34.665Z,77.07
2018-02-08T22:22:03.517Z,80.13
2018-02-08T22:24:33.165Z,79.03
2018-02-08T22:27:02.048Z,81.33
2018-02-08T22:29:31.670Z,76.50
2018-02-08T22:32:00.530Z,74.67
2018-02-08T22:34:30.158Z,80.60
2018-02-08T22:36:59.769Z,78.53
2018-02-08T22:39:28.626Z,70.90
2018-02-08T22:41:58.265Z,76.37
2018-02-08T22:44:27.153Z,83.30
2018-02-08T22:46:56.017Z,69.73
2018-02-08T22:49:25.624Z,70.57
2018-02-08T22:51:55.255Z,71.97
2018-02-08T22:54:24.147Z,76.90
2018-02-08T22:56:53.024Z,80.17
2018-02-08T22:59:22.646Z,85.50
2018-02-08T23:01:51.501Z,68.17
2018-02-08T23:04:21.097Z,76.50
2018-02-08T23:06:50.742Z,75.27
2018-02-08T23:09:19.589Z,74.73
2018-02-08T23:11:48.449Z,73.43
2018-02-08T23:14:17.293Z,80.17
2018-02-08T23:16:46.936Z,72.37
2018-02-08T23:19:16.221Z,79.70
2018-02-08T23:21:45.070Z,74.50
2018-02-08T23:24:13.926Z,75.60
2018-02-08T23:26:42.770Z,77.70
2018-02-08T23:29:12.398Z,78.17
2018-02-08T23:31:42.490Z,72.90
2018-02-08T23:34:12.112Z,75.23
2018-02-08T23:36:40.960Z,68.27
2018-02-08T23:39:09.840Z,74.93
2018-02-08T23:41:38.975Z,69.83
2018-02-08T23:44:07.814Z,73.77
2018-02-08T23:46:36.672Z,74.80
2018-02-08T23:49:06.901Z,73.50
2018-02-08T23:51:35.941Z,70.10
2018-02-08T23:54:04.780Z,68.67
2018-02-08T23:56:33.647Z,70.00
2018-02-08T23:59:03.271Z,66.10
